Time;durP1;ratioP1;P1;durP2;ratioP2;P2;SDS_P1;SDS_P2;PMS_P1;PMS_P2;Temp;Humidity;BMP_temperature;BMP_pressure;BME280_temperature;BME280_humidity;BME280_pressure;Samples;Min_cycle;Max_cycle;Signal;HPM_P1;HPM_P2
2022/07/24 00:01:51;;;;;;;;;;;;;;;21.14;62.81;99420.63;4927505;29;20033;-66
2022/07/24 00:04:17;;;;;;;;;;;;;;;21.14;62.53;99415.09;4911168;29;20033;-66
2022/07/24 00:06:42;;;;;;;;;;;;;;;21.13;62.74;99410.69;4930095;29;19986;-68
2022/07/24 00:09:09;;;;;;;;;;;;;;;21.10;62.83;99414.97;4930415;29;19937;-67
2022/07/24 00:11:35;;;;;;;;;;;;;;;21.07;63.29;99418.47;4928502;29;20042;-68
2022/07/24 00:14:01;;;;;;;;;;;;;;;21.04;63.49;99416.41;4925974;29;20025;-68
2022/07/24 00:16:27;;;;;;;;;;;;;;;21.00;63.66;99415.50;4927305;29;20633;-67
2022/07/24 00:18:53;;;;;;;;;;;;;;;20.99;63.37;99416.66;4926829;29;20302;-66
2022/07/24 00:21:18;;;;;;;;;;;;;;;20.98;63.29;99410.28;4928116;29;19931;-67
2022/07/24 00:23:44;;;;;;;;;;;;;;;20.99;63.47;99419.44;4927429;29;20026;-63
2022/07/24 00:26:11;;;;;;;;;;;;;;;20.95;63.63;99416.56;4929424;29;20433;-64
2022/07/24 00:28:37;;;;;;;;;;;;;;;20.91;63.58;99413.69;4927312;29;20381;-65
2022/07/24 00:31:03;;;;;;;;;;;;;;;20.86;64.13;99413.94;4927310;29;20578;-65
2022/07/24 00:33:29;;;;;;;;;;;;;;;20.83;64.09;99415.47;4927530;29;19954;-65
2022/07/24 00:35:55;;;;;;;;;;;;;;;20.77;64.03;99421.59;4928000;29;20178;-65
2022/07/24 00:38:20;;;;;;;;;;;;;;;20.73;64.18;99418.69;4929501;29;20018;-65
2022/07/24 00:40:46;;;;;;;;;;;;;;;20.74;64.25;99425.06;4929749;29;19930;-67
2022/07/24 00:43:16;;;;;;;;;;;;;;;20.73;64.03;99427.03;4925278;29;20266;-64
2022/07/24 00:45:41;;;;;;;;;;;;;;;20.74;63.94;99423.09;4929507;29;20212;-64
2022/07/24 00:48:07;;;;;;;;;;;;;;;20.77;63.56;99425.19;4928097;29;20403;-64
2022/07/24 00:50:33;;;;;;;;;;;;;;;20.78;63.68;99415.69;4927814;29;20450;-63
2022/07/24 00:52:59;;;;;;;;;;;;;;;20.76;63.78;99420.78;4926591;29;20302;-67
2022/07/24 00:55:25;;;;;;;;;;;;;;;20.75;63.46;99424.69;4928201;29;19937;-64
2022/07/24 00:57:51;;;;;;;;;;;;;;;20.74;63.63;99425.06;4930455;29;19934;-64
2022/07/24 01:00:19;;;;;;;;;;;;;;;20.67;64.24;99420.13;4929152;29;19931;-63
2022/07/24 01:02:45;;;;;;;;;;;;;;;20.59;64.80;99415.50;4929418;29;19986;-65
2022/07/24 01:05:11;;;;;;;;;;;;;;;20.55;64.80;99418.19;4927438;29;20406;-64
2022/07/24 01:07:37;;;;;;;;;;;;;;;20.51;65.62;99420.03;4927899;28;19982;-64
2022/07/24 01:10:04;;;;;;;;;;;;;;;20.46;66.08;99426.66;4928164;29;20329;-64
2022/07/24 01:12:30;;;;;;;;;;;;;;;20.45;66.50;99427.84;4928195;28;19931;-65
2022/07/24 01:14:56;;;;;;;;;;;;;;;20.42;67.17;99425.72;4928609;29;19954;-65
2022/07/24 01:17:23;;;;;;;;;;;;;;;20.37;67.96;99423.22;4929684;29;20422;-66
2022/07/24 01:19:50;;;;;;;;;;;;;;;;;;4928741;29;19931;-64
2022/07/24 01:22:17;;;;;;;;;;;;;;;20.29;67.66;99416.63;4927477;29;19933;-64
2022/07/24 01:24:42;;;;;;;;;;;;;;;20.29;67.16;99418.59;4930802;29;19931;-64
2022/07/24 01:27:08;;;;;;;;;;;;;;;20.29;67.02;99419.41;4933875;29;20302;-65
2022/07/24 01:29:34;;;;;;;;;;;;;;;20.37;66.70;99423.22;4934609;29;19969;-63
2022/07/24 01:32:00;;;;;;;;;;;;;;;20.44;66.83;99420.63;4932044;29;19938;-67
2022/07/24 01:34:25;;;;;;;;;;;;;;;20.46;66.35;99415.56;4933119;28;20497;-68
2022/07/24 01:36:51;;;;;;;;;;;;;;;20.51;64.88;99426.41;4930406;29;20425;-66
2022/07/24 01:39:18;;;;;;;;;;;;;;;20.55;64.29;99424.53;4930556;29;19931;-66
2022/07/24 01:41:44;;;;;;;;;;;;;;;20.57;63.64;99429.75;4931568;29;19942;-68
2022/07/24 01:44:10;;;;;;;;;;;;;;;20.58;63.46;99423.03;4930714;28;20390;-66
2022/07/24 01:46:36;;;;;;;;;;;;;;;20.58;63.86;99423.03;4932813;29;19937;-64
2022/07/24 01:49:02;;;;;;;;;;;;;;;20.57;63.82;99420.59;4932595;29;20049;-64
2022/07/24 01:51:27;;;;;;;;;;;;;;;20.61;63.72;99422.34;4931332;29;20426;-64
2022/07/24 01:53:53;;;;;;;;;;;;;;;20.66;63.46;99419.28;4932862;29;19931;-63
2022/07/24 01:56:20;;;;;;;;;;;;;;;20.73;62.70;99429.81;4929761;29;19973;-65
2022/07/24 01:58:46;;;;;;;;;;;;;;;20.76;62.67;99429.13;4946149;29;19935;-68
2022/07/24 02:01:12;;;;;;;;;;;;;;;20.76;62.19;99423.56;4930473;29;19930;-66
2022/07/24 02:03:38;;;;;;;;;;;;;;;20.73;62.22;99429.81;4930092;29;19953;-66
2022/07/24 02:06:04;;;;;;;;;;;;;;;20.72;62.23;99435.72;4929370;29;19930;-68
2022/07/24 02:08:30;;;;;;;;;;;;;;;20.68;62.63;99427.28;4926288;29;19987;-64
2022/07/24 02:10:56;;;;;;;;;;;;;;;20.65;63.09;99428.00;4910792;29;20392;-66
2022/07/24 02:13:25;;;;;;;;;;;;;;;20.63;63.04;99427.53;4912434;29;19953;-69
2022/07/24 02:15:52;;;;;;;;;;;;;;;20.62;63.04;99437.84;4912055;29;19935;-67
2022/07/24 02:18:18;;;;;;;;;;;;;;;20.63;63.17;99441.44;4926740;29;19937;-68
2022/07/24 02:20:44;;;;;;;;;;;;;;;20.63;63.96;99445.00;4930733;29;19937;-67
2022/07/24 02:23:10;;;;;;;;;;;;;;;20.64;63.95;99437.50;4930598;29;20445;-67
2022/07/24 02:25:35;;;;;;;;;;;;;;;20.64;64.33;99434.72;4931913;29;20037;-66
2022/07/24 02:28:01;;;;;;;;;;;;;;;20.64;63.85;99432.72;4929028;29;19931;-68
2022/07/24 02:30:28;;;;;;;;;;;;;;;20.65;63.96;99437.13;4930470;29;20026;-67
2022/07/24 02:32:54;;;;;;;;;;;;;;;20.66;63.42;99435.16;4928880;29;19937;-67
2022/07/24 02:35:20;;;;;;;;;;;;;;;20.69;63.23;99442.78;4942827;28;19930;-67
2022/07/24 02:37:46;;;;;;;;;;;;;;;20.72;64.05;99442.06;4927256;29;19986;-69
2022/07/24 02:40:13;;;;;;;;;;;;;;;20.73;64.42;99438.13;4927462;29;19963;-68
2022/07/24 02:42:39;;;;;;;;;;;;;;;20.77;64.66;99433.50;4928705;29;20502;-67
2022/07/24 02:45:05;;;;;;;;;;;;;;;20.76;64.22;99443.00;4929112;29;19978;-67
2022/07/24 02:47:32;;;;;;;;;;;;;;;20.76;63.52;99440.25;4927618;29;19953;-71
2022/07/24 02:49:58;;;;;;;;;;;;;;;20.76;63.03;99437.47;4929976;29;20413;-66
2022/07/24 02:52:24;;;;;;;;;;;;;;;20.79;63.04;99445.06;4912157;29;19977;-68
2022/07/24 02:54:50;;;;;;;;;;;;;;;20.79;62.53;99447.84;4909928;29;20493;-65
2022/07/24 02:57:15;;;;;;;;;;;;;;;20.81;62.66;99433.63;4911558;29;20026;-63
2022/07/24 02:59:41;;;;;;;;;;;;;;;20.82;62.59;99435.25;4917676;29;19986;-65
2022/07/24 03:02:07;;;;;;;;;;;;;;;20.79;62.69;99439.53;4928230;29;20008;-64
2022/07/24 03:04:34;;;;;;;;;;;;;;;20.82;62.64;99436.06;4930450;29;20516;-65
2022/07/24 03:07:00;;;;;;;;;;;;;;;20.90;62.55;99425.97;4928931;29;20029;-64
2022/07/24 03:09:26;;;;;;;;;;;;;;;20.95;62.15;99424.91;4927919;29;20030;-65
2022/07/24 03:11:51;;;;;;;;;;;;;;;21.02;61.78;99424.28;4930117;29;19953;-68
2022/07/24 03:14:17;;;;;;;;;;;;;;;21.12;61.26;99423.75;4931050;29;19930;-67
2022/07/24 03:16:43;;;;;;;;;;;;;;;21.18;60.97;99416.78;4929953;29;20325;-66
2022/07/24 03:19:08;;;;;;;;;;;;;;;21.28;61.23;99417.41;4928967;29;20001;-67
2022/07/24 03:21:36;;;;;;;;;;;;;;;21.33;60.86;99411.63;4925875;29;20414;-68
2022/07/24 03:24:01;;;;;;;;;;;;;;;21.41;60.37;99420.94;4927782;29;20402;-67
2022/07/24 03:26:27;;;;;;;;;;;;;;;21.45;59.98;99416.28;4927191;29;19931;-67
2022/07/24 03:28:53;;;;;;;;;;;;;;;21.45;59.91;99419.06;4927051;29;20351;-67
2022/07/24 03:31:19;;;;;;;;;;;;;;;21.46;60.36;99406.78;4928111;29;19962;-68
2022/07/24 03:33:44;;;;;;;;;;;;;;;21.52;60.09;99410.88;4930077;29;20363;-68
2022/07/24 03:36:10;;;;;;;;;;;;;;;21.67;59.89;99409.31;4928874;29;20329;-69
2022/07/24 03:38:37;;;;;;;;;;;;;;;21.77;59.47;99408.75;4926444;29;19981;-68
2022/07/24 03:41:03;;;;;;;;;;;;;;;21.83;59.17;99416.84;4927133;28;20407;-67
2022/07/24 03:43:29;;;;;;;;;;;;;;;21.84;58.96;99413.69;4923721;29;19993;-68
2022/07/24 03:45:54;;;;;;;;;;;;;;;21.72;58.67;99399.91;4927156;29;19930;-67
2022/07/24 03:48:20;;;;;;;;;;;;;;;21.81;58.49;99408.84;4927397;29;19987;-67
2022/07/24 03:50:46;;;;;;;;;;;;;;;21.83;58.16;99417.63;4927060;29;20395;-69
2022/07/24 03:53:12;;;;;;;;;;;;;;;21.73;58.23;99395.94;4926636;29;20653;-67
2022/07/24 03:55:39;;;;;;;;;;;;;;;21.88;58.18;99400.69;4929698;29;19930;-68
2022/07/24 03:58:05;;;;;;;;;;;;;;;21.92;57.67;99406.31;4942941;29;19931;-67
2022/07/24 04:00:31;;;;;;;;;;;;;;;21.95;57.59;99402.84;4927255;29;20452;-68
2022/07/24 04:02:56;;;;;;;;;;;;;;;21.95;57.68;99406.41;4927875;29;19986;-67
2022/07/24 04:05:22;;;;;;;;;;;;;;;22.00;57.37;99393.38;4928624;29;20026;-68
2022/07/24 04:07:48;;;;;;;;;;;;;;;22.06;56.99;99394.72;4926496;29;20390;-69
2022/07/24 04:10:13;;;;;;;;;;;;;;;22.04;56.93;99394.28;4927261;29;20465;-66
2022/07/24 04:12:40;;;;;;;;;;;;;;;22.09;57.01;99405.94;4941262;29;19931;-69
2022/07/24 04:15:08;;;;;;;;;;;;;;;22.10;56.96;99403.97;4940860;29;20453;-68
2022/07/24 04:17:37;;;;;;;;;;;;;;;22.05;56.76;99407.03;4927929;29;19938;-65
2022/07/24 04:20:03;;;;;;;;;;;;;;;22.12;56.57;99406.38;4930042;29;20302;-64
2022/07/24 04:22:29;;;;;;;;;;;;;;;22.18;56.53;99407.72;4926278;29;19931;-64
2022/07/24 04:24:54;;;;;;;;;;;;;;;22.27;56.07;99405.53;4926449;29;19993;-64
2022/07/24 04:27:20;;;;;;;;;;;;;;;22.29;55.98;99411.53;4927053;29;19930;-64
2022/07/24 04:29:47;;;;;;;;;;;;;;;22.24;56.07;99411.81;4927910;29;20317;-68
2022/07/24 04:32:13;;;;;;;;;;;;;;;22.20;56.02;99420.09;4924256;29;19938;-67
2022/07/24 04:34:39;;;;;;;;;;;;;;;22.18;55.82;99411.31;4926903;29;19935;-68
2022/07/24 04:37:04;;;;;;;;;;;;;;;21.90;56.37;99372.47;4927432;29;19935;-68
2022/07/24 04:39:30;;;;;;;;;;;;;;;22.15;56.51;99416.78;4927094;29;19937;-64
2022/07/24 04:41:56;;;;;;;;;;;;;;;22.20;56.18;99414.53;4927247;29;19931;-64
2022/07/24 04:44:22;;;;;;;;;;;;;;;22.35;55.28;99414.84;4925601;28;20406;-65
2022/07/24 04:46:49;;;;;;;;;;;;;;;22.54;54.75;99416.06;4928786;29;19930;-67
2022/07/24 04:49:14;;;;;;;;;;;;;;;22.74;54.22;99408.53;4924858;29;19931;-67
2022/07/24 04:51:40;;;;;;;;;;;;;;;22.94;53.82;99417.66;4926933;29;19937;-67
2022/07/24 04:54:06;;;;;;;;;;;;;;;22.84;53.52;99371.69;4926913;29;19931;-68
2022/07/24 04:56:32;;;;;;;;;;;;;;;23.21;52.94;99415.00;4925313;29;19930;-68
2022/07/24 04:58:58;;;;;;;;;;;;;;;23.29;53.00;99413.97;4928236;29;19931;-67
2022/07/24 05:01:24;;;;;;;;;;;;;;;23.35;52.29;99412.50;4947423;29;19938;-67
2022/07/24 05:03:52;;;;;;;;;;;;;;;23.42;51.90;99420.19;4929929;29;19993;-67
2022/07/24 05:06:18;;;;;;;;;;;;;;;23.48;51.62;99413.09;4929169;29;19931;-68
2022/07/24 05:08:43;;;;;;;;;;;;;;;23.56;51.46;99414.03;4912274;29;20374;-68
2022/07/24 05:11:09;;;;;;;;;;;;;;;23.58;51.56;99406.13;4928149;29;19931;-67
2022/07/24 05:13:35;;;;;;;;;;;;;;;23.67;51.35;99419.81;4928965;29;19931;-68
2022/07/24 05:16:00;;;;;;;;;;;;;;;23.79;50.93;99410.44;4930697;29;20485;-68
2022/07/24 05:18:26;;;;;;;;;;;;;;;23.88;50.61;99404.59;4944259;29;20152;-69
2022/07/24 05:20:53;;;;;;;;;;;;;;;24.02;50.10;99396.44;4929892;29;19931;-67
2022/07/24 05:23:19;;;;;;;;;;;;;;;24.19;49.72;99397.09;4931219;29;19930;-67
2022/07/24 05:25:45;;;;;;;;;;;;;;;24.35;49.37;99399.69;4930404;29;20390;-67
2022/07/24 05:28:10;;;;;;;;;;;;;;;24.27;48.98;99375.66;4928133;29;20383;-67
2022/07/24 05:30:36;;;;;;;;;;;;;;;24.38;49.19;99393.38;4931519;29;19931;-68
2022/07/24 05:33:02;;;;;;;;;;;;;;;24.39;48.91;99394.97;4931300;29;20009;-69
2022/07/24 05:35:28;;;;;;;;;;;;;;;24.37;48.74;99391.75;4932548;29;20041;-68
2022/07/24 05:37:55;;;;;;;;;;;;;;;24.39;48.81;99386.59;4931121;29;20029;-68
2022/07/24 05:40:21;;;;;;;;;;;;;;;24.36;48.75;99390.16;4931470;29;20029;-68
2022/07/24 05:42:47;;;;;;;;;;;;;;;24.39;48.75;99383.78;4933314;29;20021;-68
2022/07/24 05:45:12;;;;;;;;;;;;;;;24.42;47.93;99394.19;4927942;29;20274;-69
2022/07/24 05:47:39;;;;;;;;;;;;;;;24.42;47.75;99379.41;4929379;29;19937;-68
2022/07/24 05:50:06;;;;;;;;;;;;;;;24.42;47.79;99394.19;4931903;29;19985;-67
2022/07/24 05:52:32;;;;;;;;;;;;;;;24.39;47.82;99382.97;4930252;29;20322;-69
2022/07/24 05:54:59;;;;;;;;;;;;;;;24.40;47.90;99385.41;4931503;29;19931;-65
2022/07/24 05:57:24;;;;;;;;;;;;;;;24.44;48.18;99388.25;4928111;29;19934;-65
2022/07/24 05:59:50;;;;;;;;;;;;;;;24.47;48.06;99379.09;4926185;29;20171;-69
2022/07/24 06:02:16;;;;;;;;;;;;;;;24.54;47.77;99375.59;4928257;29;19931;-67
2022/07/24 06:04:42;;;;;;;;;;;;;;;24.57;47.91;99378.41;4928750;29;20046;-67
2022/07/24 06:07:09;;;;;;;;;;;;;;;24.66;47.23;99382.91;4945903;28;19978;-67
2022/07/24 06:09:34;;;;;;;;;;;;;;;24.72;47.04;99373.81;4930513;29;19938;-68
2022/07/24 06:12:02;;;;;;;;;;;;;;;24.80;47.00;99377.53;4929699;29;19931;-68
2022/07/24 06:14:27;;;;;;;;;;;;;;;24.84;46.53;99372.78;4930206;29;20238;-64
2022/07/24 06:16:53;;;;;;;;;;;;;;;24.87;46.44;99374.78;4927563;29;19935;-66
2022/07/24 06:19:19;;;;;;;;;;;;;;;24.98;46.15;99379.72;4927953;29;20366;-65
2022/07/24 06:21:45;;;;;;;;;;;;;;;25.07;46.14;99383.00;4927330;29;19931;-65
2022/07/24 06:24:10;;;;;;;;;;;;;;;25.16;45.86;99375.09;4913071;29;19963;-64
2022/07/24 06:26:36;;;;;;;;;;;;;;;25.34;45.28;99380.88;4910093;29;19931;-66
2022/07/24 06:29:04;;;;;;;;;;;;;;;25.62;44.81;99368.34;4908926;29;20025;-66
2022/07/24 06:31:29;;;;;;;;;;;;;;;25.85;44.15;99369.28;4573663;28;10000256;-65
2022/07/24 06:33:55;;;;;;;;;;;;;;;26.01;43.79;99363.38;4925546;29;20021;-65
2022/07/24 06:36:21;;;;;;;;;;;;;;;26.16;43.06;99362.28;4925579;29;19941;-67
2022/07/24 06:38:47;;;;;;;;;;;;;;;26.16;42.68;99367.09;4922713;29;20362;-69
2022/07/24 06:41:13;;;;;;;;;;;;;;;26.11;42.65;99371.06;4925514;28;20461;-67
2022/07/24 06:43:39;;;;;;;;;;;;;;;26.15;42.74;99365.47;4926594;29;20042;-67
2022/07/24 06:46:06;;;;;;;;;;;;;;;26.25;42.50;99363.97;4941824;29;20442;-66
2022/07/24 06:48:32;;;;;;;;;;;;;;;26.29;42.13;99361.97;4927657;29;20411;-66
2022/07/24 06:50:58;;;;;;;;;;;;;;;26.48;41.71;99358.84;4927110;29;19931;-65
2022/07/24 06:53:24;;;;;;;;;;;;;;;26.88;41.26;99349.78;4899558;29;19930;-65
2022/07/24 06:55:53;;;;;;;;;;;;;;;27.16;40.90;99351.00;4922209;29;19931;-67
2022/07/24 06:58:19;;;;;;;;;;;;;;;27.42;40.35;99352.66;4905159;29;20407;-69
2022/07/24 07:00:44;;;;;;;;;;;;;;;27.69;39.60;99343.03;4904698;29;19931;-69
2022/07/24 07:03:12;;;;;;;;;;;;;;;27.71;39.26;99337.81;4909365;29;20021;-68
2022/07/24 07:05:37;;;;;;;;;;;;;;;27.60;39.51;99341.44;4924863;29;20026;-69
2022/07/24 07:08:04;;;;;;;;;;;;;;;27.64;39.32;99344.25;4909869;29;20481;-65
2022/07/24 07:10:30;;;;;;;;;;;;;;;27.69;39.28;99341.00;4926001;29;19931;-65
2022/07/24 07:12:56;;;;;;;;;;;;;;;27.78;38.72;99339.81;4924240;29;19937;-66
2022/07/24 07:15:23;;;;;;;;;;;;;;;27.85;38.27;99328.56;4926545;29;19930;-69
2022/07/24 07:17:48;;;;;;;;;;;;;;;27.98;37.77;99340.16;4925120;28;19931;-65
2022/07/24 07:20:16;;;;;;;;;;;;;;;28.13;37.36;99338.09;4921126;29;19938;-66
2022/07/24 07:22:42;;;;;;;;;;;;;;;28.12;37.16;99339.31;4925399;29;20476;-65
2022/07/24 07:25:08;;;;;;;;;;;;;;;28.10;37.33;99336.94;4924927;29;19931;-66
2022/07/24 07:27:35;;;;;;;;;;;;;;;28.03;37.16;99328.50;4923932;29;19931;-67
2022/07/24 07:30:01;;;;;;;;;;;;;;;27.84;37.39;99327.75;4924900;28;20122;-65
2022/07/24 07:32:29;;;;;;;;;;;;;;;27.69;36.95;99324.16;4928030;29;19957;-65
2022/07/24 07:34:54;;;;;;;;;;;;;;;27.61;36.91;99328.19;4922040;29;20377;-64
2022/07/24 07:37:21;;;;;;;;;;;;;;;27.51;36.75;99337.41;4928555;29;19986;-65
2022/07/24 07:39:47;;;;;;;;;;;;;;;27.50;36.82;99313.34;4923473;29;19938;-64
2022/07/24 07:42:13;;;;;;;;;;;;;;;27.78;36.44;99325.78;4924599;29;20382;-64
2022/07/24 07:44:39;;;;;;;;;;;;;;;27.83;36.15;99326.16;4923940;29;19976;-67
2022/07/24 07:47:04;;;;;;;;;;;;;;;27.88;36.01;99317.31;4924647;29;19931;-65
2022/07/24 07:49:30;;;;;;;;;;;;;;;28.00;35.45;99315.28;4930589;29;19937;-65
2022/07/24 07:51:56;;;;;;;;;;;;;;;28.06;35.63;99326.91;4926942;28;19930;-65
2022/07/24 07:54:23;;;;;;;;;;;;;;;28.10;35.43;99313.66;4926573;29;19935;-65
2022/07/24 07:56:49;;;;;;;;;;;;;;;28.18;35.35;99312.44;4929660;29;19962;-65
2022/07/24 07:59:15;;;;;;;;;;;;;;;28.36;34.73;99303.94;4928906;29;19977;-65
2022/07/24 08:01:40;;;;;;;;;;;;;;;28.43;34.59;99312.34;4929119;29;19931;-64
2022/07/24 08:04:06;;;;;;;;;;;;;;;28.37;34.20;99313.97;4929517;29;19938;-65
2022/07/24 08:06:32;;;;;;;;;;;;;;;28.41;34.15;99311.13;4928142;29;19982;-65
2022/07/24 08:08:58;;;;;;;;;;;;;;;28.47;33.70;99298.25;4928633;29;20001;-65
2022/07/24 08:11:25;;;;;;;;;;;;;;;28.83;33.64;99300.06;4927362;29;20458;-65
2022/07/24 08:13:50;;;;;;;;;;;;;;;29.29;33.24;99304.53;4923446;29;19931;-65
2022/07/24 08:16:16;;;;;;;;;;;;;;;29.57;31.93;99310.34;4909860;29;20037;-65
2022/07/24 08:18:42;;;;;;;;;;;;;;;29.56;32.50;99305.94;4909453;29;19959;-65
2022/07/24 08:21:08;;;;;;;;;;;;;;;29.54;31.93;99311.19;4907147;29;19939;-65
2022/07/24 08:23:33;;;;;;;;;;;;;;;29.62;32.22;99304.28;4925090;29;19934;-64
2022/07/24 08:25:59;;;;;;;;;;;;;;;30.02;31.32;99292.59;4941922;29;19938;-65
2022/07/24 08:28:26;;;;;;;;;;;;;;;30.24;30.80;99290.34;4926591;29;20298;-64
2022/07/24 08:30:52;;;;;;;;;;;;;;;30.38;30.53;99300.59;4928571;29;19989;-64
2022/07/24 08:33:18;;;;;;;;;;;;;;;30.53;30.71;99294.78;4920931;29;20426;-66
2022/07/24 08:35:44;;;;;;;;;;;;;;;30.69;30.53;99297.78;4930304;29;20481;-64
2022/07/24 08:38:10;;;;;;;;;;;;;;;30.66;30.29;99290.19;4932265;29;19931;-65
2022/07/24 08:40:36;;;;;;;;;;;;;;;30.95;29.59;99298.22;4933603;29;20049;-67
2022/07/24 08:43:02;;;;;;;;;;;;;;;30.96;29.17;99293.34;4932295;29;19946;-65
2022/07/24 08:45:33;;;;;;;;;;;;;;;31.01;29.05;99298.53;4930657;29;19930;-65
2022/07/24 08:47:59;;;;;;;;;;;;;;;31.20;28.44;99293.38;4929712;29;20041;-66
2022/07/24 08:50:25;;;;;;;;;;;;;;;31.20;28.60;99297.00;4931982;29;19914;-66
2022/07/24 08:52:51;;;;;;;;;;;;;;;31.27;28.70;99287.63;4930174;29;19946;-65
2022/07/24 08:55:17;;;;;;;;;;;;;;;31.34;29.19;99283.91;4944689;28;19930;-66
2022/07/24 08:57:42;;;;;;;;;;;;;;;31.41;29.04;99286.59;4915025;29;19931;-65
2022/07/24 09:00:09;;;;;;;;;;;;;;;31.59;28.74;99285.47;4931121;29;20001;-66
2022/07/24 09:02:38;;;;;;;;;;;;;;;31.76;28.40;99273.03;4932826;29;19931;-65
2022/07/24 09:05:03;;;;;;;;;;;;;;;32.19;27.66;99273.44;4930150;29;19937;-67
2022/07/24 09:07:30;;;;;;;;;;;;;;;32.31;27.83;99269.91;4933839;29;19931;-67
2022/07/24 09:10:00;;;;;;;;;;;;;;;32.47;27.26;99276.88;4925335;29;19931;-69
2022/07/24 09:12:29;;;;;;;;;;;;;;;32.58;27.08;99276.66;4931688;29;19937;-68
2022/07/24 09:14:55;;;;;;;;;;;;;;;32.41;27.25;99262.47;4928584;29;20406;-67
2022/07/24 09:17:21;;;;;;;;;;;;;;;32.39;27.60;99262.91;4929467;29;20006;-67
2022/07/24 09:19:50;;;;;;;;;;;;;;;32.37;27.31;99262.56;4928779;29;20701;-68
2022/07/24 09:22:39;;;;;;;;;;;;;;;32.22;28.03;99255.59;4930359;29;19938;-66
2022/07/24 09:25:07;;;;;;;;;;;;;;;32.70;27.53;99256.13;4898530;29;19931;-67
2022/07/24 09:27:33;;;;;;;;;;;;;;;32.78;27.03;99268.88;4911911;29;20030;-67
2022/07/24 09:29:58;;;;;;;;;;;;;;;33.02;27.13;99267.94;4911832;29;19939;-67
2022/07/24 09:32:24;;;;;;;;;;;;;;;33.52;26.57;99260.22;4911639;29;19931;-67
2022/07/24 09:34:53;;;;;;;;;;;;;;;34.16;25.30;99261.69;4915628;29;19935;-70
2022/07/24 09:37:19;;;;;;;;;;;;;;;34.36;24.76;99264.31;4926785;29;19938;-66
2022/07/24 09:39:44;;;;;;;;;;;;;;;34.23;24.40;99252.97;4922547;29;20403;-66
2022/07/24 09:42:11;;;;;;;;;;;;;;;34.13;24.49;99273.94;4913820;29;19989;-65
2022/07/24 09:44:37;;;;;;;;;;;;;;;34.34;24.19;99270.47;4912485;29;19931;-65
2022/07/24 09:47:03;;;;;;;;;;;;;;;34.62;24.39;99268.00;4922173;29;20273;-67
2022/07/24 09:49:30;;;;;;;;;;;;;;;35.13;23.69;99257.88;4909720;29;20316;-66
2022/07/24 09:52:14;;;;;;;;;;;;;;;35.34;23.08;99267.69;4914502;29;20014;-65
2022/07/24 09:54:42;;;;;;;;;;;;;;;35.45;23.42;99263.69;4922082;29;19931;-66
2022/07/24 09:57:18;;;;;;;;;;;;;;;35.24;23.68;99253.84;4915405;29;19931;-67
2022/07/24 09:59:46;;;;;;;;;;;;;;;35.01;24.15;99267.97;4908909;29;20353;-65
2022/07/24 10:02:12;;;;;;;;;;;;;;;33.60;25.67;99263.66;4911309;29;20017;-66
2022/07/24 10:04:40;;;;;;;;;;;;;;;32.85;26.91;99250.13;4921825;29;19935;-66
2022/07/24 10:07:09;;;;;;;;;;;;;;;34.22;25.04;99260.66;4927927;29;19937;-65
2022/07/24 10:09:39;;;;;;;;;;;;;;;34.62;24.93;99261.53;4928651;29;20519;-66
2022/07/24 10:12:10;;;;;;;;;;;;;;;33.56;26.19;99260.09;4913066;29;19931;-66
2022/07/24 10:14:36;;;;;;;;;;;;;;;32.71;27.19;99257.75;4908585;29;20454;-65
2022/07/24 10:17:05;;;;;;;;;;;;;;;32.26;28.24;99256.28;4912440;29;19974;-66
2022/07/24 10:19:38;;;;;;;;;;;;;;;31.91;28.98;99250.19;4922068;29;20026;-68
2022/07/24 10:22:07;;;;;;;;;;;;;;;33.15;27.26;99240.53;4926078;29;19931;-68
2022/07/24 10:24:53;;;;;;;;;;;;;;;33.70;26.20;99247.59;4925586;29;19935;-66
2022/07/24 10:27:25;;;;;;;;;;;;;;;32.11;28.44;99253.78;4923895;29;19953;-68
2022/07/24 10:29:52;;;;;;;;;;;;;;;31.30;30.20;99249.28;4918135;29;20224;-65
2022/07/24 10:32:18;;;;;;;;;;;;;;;30.67;31.38;99248.66;4924364;29;19930;-65
2022/07/24 10:34:46;;;;;;;;;;;;;;;31.58;29.50;99245.13;4928412;29;19931;-65
2022/07/24 10:37:21;;;;;;;;;;;;;;;32.67;28.22;99232.38;4929007;29;19935;-66
2022/07/24 10:39:54;;;;;;;;;;;;;;;34.11;26.35;99231.88;4926791;29;19977;-67
2022/07/24 10:42:19;;;;;;;;;;;;;;;35.09;25.20;99233.69;4911102;29;19958;-66
2022/07/24 10:45:08;;;;;;;;;;;;;;;35.18;25.03;99234.56;4914971;29;19961;-68
2022/07/24 10:47:33;;;;;;;;;;;;;;;35.17;25.35;99227.31;4928094;29;19931;-67
2022/07/24 10:50:00;;;;;;;;;;;;;;;34.60;25.88;99232.81;4929125;29;20446;-66
2022/07/24 10:52:27;;;;;;;;;;;;;;;33.24;26.95;99235.00;4927079;29;19978;-67
2022/07/24 10:55:11;;;;;;;;;;;;;;;32.00;28.13;99233.41;4929669;29;20362;-67
2022/07/24 10:57:48;;;;;;;;;;;;;;;30.90;30.29;99230.97;4926778;29;20425;-66
2022/07/24 11:00:22;;;;;;;;;;;;;;;31.35;29.74;99226.19;4918273;29;19938;-68
2022/07/24 11:02:54;;;;;;;;;;;;;;;33.49;26.69;99222.25;4909958;29;20437;-68
2022/07/24 11:05:25;;;;;;;;;;;;;;;35.11;25.26;99216.97;4926566;29;19938;-66
2022/07/24 11:08:09;;;;;;;;;;;;;;;36.77;23.15;99212.81;4927219;29;19931;-67
2022/07/24 11:10:44;;;;;;;;;;;;;;;38.54;21.30;99206.22;4926162;29;19926;-68
2022/07/24 11:13:25;;;;;;;;;;;;;;;39.10;20.11;99212.38;4943984;29;19930;-66
2022/07/24 11:16:09;;;;;;;;;;;;;;;38.44;19.78;99209.06;4927447;29;19981;-66
2022/07/24 11:18:37;;;;;;;;;;;;;;;36.80;21.69;99206.19;4930485;29;19933;-68
2022/07/24 11:21:02;;;;;;;;;;;;;;;36.54;22.28;99203.59;4928465;29;19957;-68
2022/07/24 11:23:28;;;;;;;;;;;;;;;36.48;22.26;99174.13;4928077;29;20370;-67
2022/07/24 11:26:09;;;;;;;;;;;;;;;37.01;21.78;99186.63;4927302;29;19931;-69
2022/07/24 11:28:34;;;;;;;;;;;;;;;37.40;21.61;99183.31;4927417;29;19935;-68
2022/07/24 11:31:02;;;;;;;;;;;;;;;37.67;21.08;99181.72;4927207;29;19954;-68
2022/07/24 11:33:28;;;;;;;;;;;;;;;37.85;20.93;99180.91;4926280;29;20394;-68
2022/07/24 11:35:55;;;;;;;;;;;;;;;37.92;20.79;99177.69;4930421;29;20003;-67
2022/07/24 11:38:27;;;;;;;;;;;;;;;38.01;20.77;99176.91;4927507;29;20049;-66
2022/07/24 11:41:04;;;;;;;;;;;;;;;38.44;20.18;99166.25;4945383;28;19937;-67
2022/07/24 11:43:29;;;;;;;;;;;;;;;38.45;19.72;99172.78;4929464;29;19931;-67
2022/07/24 11:45:55;;;;;;;;;;;;;;;38.22;20.26;99171.47;4896874;29;19938;-67
2022/07/24 11:48:21;;;;;;;;;;;;;;;38.20;20.03;99163.38;4917666;29;19963;-68
2022/07/24 11:50:47;;;;;;;;;;;;;;;38.44;19.66;99151.22;4919665;29;19954;-68
2022/07/24 11:53:14;;;;;;;;;;;;;;;38.09;19.99;99169.59;4924583;29;19935;-68
2022/07/24 11:55:39;;;;;;;;;;;;;;;37.76;20.23;99172.34;4920900;29;19931;-68
2022/07/24 11:58:05;;;;;;;;;;;;;;;37.72;20.59;99153.38;4920896;29;20057;-68
2022/07/24 12:00:31;;;;;;;;;;;;;;;38.93;19.53;99165.53;4927643;29;19931;-68
2022/07/24 12:02:58;;;;;;;;;;;;;;;39.55;18.63;99151.69;4926253;29;19934;-67
2022/07/24 12:05:25;;;;;;;;;;;;;;;40.01;18.27;99158.22;4925369;28;19974;-68
2022/07/24 12:07:51;;;;;;;;;;;;;;;39.44;18.45;99158.00;4927917;29;19931;-68
2022/07/24 12:10:23;;;;;;;;;;;;;;;39.00;18.64;99159.44;4927673;29;20361;-68
2022/07/24 12:12:49;;;;;;;;;;;;;;;38.79;18.98;99139.28;4921574;29;20202;-68
2022/07/24 12:15:21;;;;;;;;;;;;;;;38.74;19.04;99151.38;4759094;28;10000247;-68
2022/07/24 12:17:55;;;;;;;;;;;;;;;38.64;18.90;99133.53;4931323;29;19939;-68
2022/07/24 12:20:21;;;;;;;;;;;;;;;39.35;18.56;99143.75;4920320;29;19974;-67
2022/07/24 12:22:47;;;;;;;;;;;;;;;39.68;18.62;99131.38;4921086;29;20311;-64
2022/07/24 12:25:14;;;;;;;;;;;;;;;39.84;18.69;99121.53;4929415;29;19935;-66
2022/07/24 12:27:42;;;;;;;;;;;;;;;39.99;18.50;99110.88;4920600;29;20366;-65
2022/07/24 12:30:19;;;;;;;;;;;;;;;40.31;18.34;99129.56;4925334;29;19931;-64
2022/07/24 12:32:52;;;;;;;;;;;;;;;38.71;19.29;99130.28;4894908;29;19931;-66
2022/07/24 12:35:18;;;;;;;;;;;;;;;35.72;22.43;99120.25;4907778;29;19939;-66
2022/07/24 12:37:43;;;;;;;;;;;;;;;34.68;23.87;99117.81;4912819;29;19931;-67
2022/07/24 12:40:21;;;;;;;;;;;;;;;35.74;22.88;99106.34;4914201;29;19958;-66
2022/07/24 12:42:54;;;;;;;;;;;;;;;34.84;24.00;99107.56;4914067;29;20545;-66
2022/07/24 12:45:20;;;;;;;;;;;;;;;35.89;22.97;99101.69;4916757;29;19937;-66
2022/07/24 12:48:01;;;;;;;;;;;;;;;37.49;21.37;99102.72;4912257;29;19931;-67